sensor_id;sensor_type;location;lat;lon;timestamp;temperature;humidity
2042;DHT22;1026;51.460;7.252;2023-04-01T00:02:18;11.20;97.20
2042;DHT22;1026;51.460;7.252;2023-04-01T00:04:43;11.20;97.10
2042;DHT22;1026;51.460;7.252;2023-04-01T00:07:09;11.20;97.20
2042;DHT22;1026;51.460;7.252;2023-04-01T00:09:36;11.20;97.10
2042;DHT22;1026;51.460;7.252;2023-04-01T00:12:02;11.20;97.10
2042;DHT22;1026;51.460;7.252;2023-04-01T00:14:27;11.20;97.20
2042;DHT22;1026;51.460;7.252;2023-04-01T00:16:54;11.20;97.20
2042;DHT22;1026;51.460;7.252;2023-04-01T00:19:20;11.20;97.20
2042;DHT22;1026;51.460;7.252;2023-04-01T00:21:45;11.20;97.20
2042;DHT22;1026;51.460;7.252;2023-04-01T00:24:12;11.20;97.20
2042;DHT22;1026;51.460;7.252;2023-04-01T00:26:37;11.20;97.30
2042;DHT22;1026;51.460;7.252;2023-04-01T00:29:03;11.20;97.20
2042;DHT22;1026;51.460;7.252;2023-04-01T00:31:29;11.20;97.30
2042;DHT22;1026;51.460;7.252;2023-04-01T00:33:55;11.20;97.30
2042;DHT22;1026;51.460;7.252;2023-04-01T00:36:26;11.10;97.20
2042;DHT22;1026;51.460;7.252;2023-04-01T00:38:52;11.10;97.50
2042;DHT22;1026;51.460;7.252;2023-04-01T00:41:19;11.10;97.30
2042;DHT22;1026;51.460;7.252;2023-04-01T00:43:49;11.10;97.20
2042;DHT22;1026;51.460;7.252;2023-04-01T00:46:16;11.00;97.20
2042;DHT22;1026;51.460;7.252;2023-04-01T00:48:51;11.10;97.30
2042;DHT22;1026;51.460;7.252;2023-04-01T00:51:22;11.10;97.30
2042;DHT22;1026;51.460;7.252;2023-04-01T00:53:50;11.10;97.30
2042;DHT22;1026;51.460;7.252;2023-04-01T00:56:21;11.10;97.30
2042;DHT22;1026;51.460;7.252;2023-04-01T00:58:51;11.10;97.30
2042;DHT22;1026;51.460;7.252;2023-04-01T01:01:22;11.10;97.20
2042;DHT22;1026;51.460;7.252;2023-04-01T01:03:48;11.10;97.20
2042;DHT22;1026;51.460;7.252;2023-04-01T01:09:20;11.10;97.30
2042;DHT22;1026;51.460;7.252;2023-04-01T01:12:00;11.10;97.30
2042;DHT22;1026;51.460;7.252;2023-04-01T01:14:46;11.00;97.20
2042;DHT22;1026;51.460;7.252;2023-04-01T01:17:28;11.10;97.30
2042;DHT22;1026;51.460;7.252;2023-04-01T01:23:00;11.10;97.40
2042;DHT22;1026;51.460;7.252;2023-04-01T01:25:47;11.10;97.40
2042;DHT22;1026;51.460;7.252;2023-04-01T01:28:44;11.00;97.30
2042;DHT22;1026;51.460;7.252;2023-04-01T01:31:43;11.10;97.40
2042;DHT22;1026;51.460;7.252;2023-04-01T01:36:37;11.00;97.30
2042;DHT22;1026;51.460;7.252;2023-04-01T01:39:05;11.00;97.30
2042;DHT22;1026;51.460;7.252;2023-04-01T01:41:36;11.10;97.40
2042;DHT22;1026;51.460;7.252;2023-04-01T01:44:06;11.00;97.30
2042;DHT22;1026;51.460;7.252;2023-04-01T01:46:33;11.00;97.30
2042;DHT22;1026;51.460;7.252;2023-04-01T01:49:00;11.00;97.30
2042;DHT22;1026;51.460;7.252;2023-04-01T01:51:28;11.00;97.40
2042;DHT22;1026;51.460;7.252;2023-04-01T01:53:54;11.00;97.40
2042;DHT22;1026;51.460;7.252;2023-04-01T01:56:22;11.00;97.40
2042;DHT22;1026;51.460;7.252;2023-04-01T01:58:52;11.00;97.30
2042;DHT22;1026;51.460;7.252;2023-04-01T02:01:24;11.00;97.40
2042;DHT22;1026;51.460;7.252;2023-04-01T02:03:52;11.00;97.40
2042;DHT22;1026;51.460;7.252;2023-04-01T02:06:22;11.00;97.40
2042;DHT22;1026;51.460;7.252;2023-04-01T02:09:09;11.00;97.40
2042;DHT22;1026;51.460;7.252;2023-04-01T02:11:46;11.00;97.40
2042;DHT22;1026;51.460;7.252;2023-04-01T02:14:26;11.00;97.40
2042;DHT22;1026;51.460;7.252;2023-04-01T02:16:58;11.00;97.40
2042;DHT22;1026;51.460;7.252;2023-04-01T02:19:30;11.00;97.40
2042;DHT22;1026;51.460;7.252;2023-04-01T02:22:00;10.90;97.40
2042;DHT22;1026;51.460;7.252;2023-04-01T02:24:28;11.00;97.40
2042;DHT22;1026;51.460;7.252;2023-04-01T02:26:55;11.00;97.40
2042;DHT22;1026;51.460;7.252;2023-04-01T02:29:23;11.00;97.40
2042;DHT22;1026;51.460;7.252;2023-04-01T02:31:51;10.90;97.40
2042;DHT22;1026;51.460;7.252;2023-04-01T02:34:18;11.00;97.40
2042;DHT22;1026;51.460;7.252;2023-04-01T02:36:44;11.00;97.50
2042;DHT22;1026;51.460;7.252;2023-04-01T02:39:10;11.00;97.70
2042;DHT22;1026;51.460;7.252;2023-04-01T02:41:45;10.90;97.40
2042;DHT22;1026;51.460;7.252;2023-04-01T02:44:12;10.90;97.40
2042;DHT22;1026;51.460;7.252;2023-04-01T02:46:38;10.90;97.40
2042;DHT22;1026;51.460;7.252;2023-04-01T02:49:05;10.90;97.40
2042;DHT22;1026;51.460;7.252;2023-04-01T02:51:37;10.90;97.50
2042;DHT22;1026;51.460;7.252;2023-04-01T02:54:03;10.90;97.40
2042;DHT22;1026;51.460;7.252;2023-04-01T02:56:28;10.90;97.40
2042;DHT22;1026;51.460;7.252;2023-04-01T02:58:54;10.90;97.50
2042;DHT22;1026;51.460;7.252;2023-04-01T03:01:20;10.90;97.50
2042;DHT22;1026;51.460;7.252;2023-04-01T03:03:46;10.90;97.50
2042;DHT22;1026;51.460;7.252;2023-04-01T03:06:14;10.90;97.40
2042;DHT22;1026;51.460;7.252;2023-04-01T03:08:40;10.90;97.40
2042;DHT22;1026;51.460;7.252;2023-04-01T03:11:06;10.90;97.50
2042;DHT22;1026;51.460;7.252;2023-04-01T03:13:33;10.90;97.40
2042;DHT22;1026;51.460;7.252;2023-04-01T03:15:58;10.90;97.50
2042;DHT22;1026;51.460;7.252;2023-04-01T03:18:27;10.80;97.40
2042;DHT22;1026;51.460;7.252;2023-04-01T03:20:53;10.90;97.60
2042;DHT22;1026;51.460;7.252;2023-04-01T03:23:18;10.90;97.50
2042;DHT22;1026;51.460;7.252;2023-04-01T03:25:46;10.90;97.40
2042;DHT22;1026;51.460;7.252;2023-04-01T03:28:15;10.90;97.40
2042;DHT22;1026;51.460;7.252;2023-04-01T03:30:48;10.90;97.50
2042;DHT22;1026;51.460;7.252;2023-04-01T03:33:26;10.90;97.50
2042;DHT22;1026;51.460;7.252;2023-04-01T03:35:51;10.90;97.40
2042;DHT22;1026;51.460;7.252;2023-04-01T03:38:17;10.90;97.50
2042;DHT22;1026;51.460;7.252;2023-04-01T03:40:44;10.90;97.60
2042;DHT22;1026;51.460;7.252;2023-04-01T03:43:10;10.80;97.50
2042;DHT22;1026;51.460;7.252;2023-04-01T03:45:43;10.80;97.50
2042;DHT22;1026;51.460;7.252;2023-04-01T03:48:08;10.90;97.50
2042;DHT22;1026;51.460;7.252;2023-04-01T03:50:34;10.80;97.50
2042;DHT22;1026;51.460;7.252;2023-04-01T03:53:00;10.80;97.50
2042;DHT22;1026;51.460;7.252;2023-04-01T03:55:26;10.80;97.50
2042;DHT22;1026;51.460;7.252;2023-04-01T03:57:52;10.80;97.50
2042;DHT22;1026;51.460;7.252;2023-04-01T04:00:17;10.80;97.50
2042;DHT22;1026;51.460;7.252;2023-04-01T04:02:44;10.80;97.50
2042;DHT22;1026;51.460;7.252;2023-04-01T04:05:10;10.80;97.50
2042;DHT22;1026;51.460;7.252;2023-04-01T04:07:36;10.80;97.50
2042;DHT22;1026;51.460;7.252;2023-04-01T04:10:05;10.80;97.50
2042;DHT22;1026;51.460;7.252;2023-04-01T04:12:34;10.80;97.50
2042;DHT22;1026;51.460;7.252;2023-04-01T04:15:00;10.80;97.60
2042;DHT22;1026;51.460;7.252;2023-04-01T04:17:25;10.80;97.50
2042;DHT22;1026;51.460;7.252;2023-04-01T04:19:51;10.80;97.50
2042;DHT22;1026;51.460;7.252;2023-04-01T04:22:17;10.80;97.60
2042;DHT22;1026;51.460;7.252;2023-04-01T04:24:47;10.80;97.60
2042;DHT22;1026;51.460;7.252;2023-04-01T04:27:13;10.80;97.70
2042;DHT22;1026;51.460;7.252;2023-04-01T04:29:39;10.80;97.60
2042;DHT22;1026;51.460;7.252;2023-04-01T04:32:04;10.70;97.60
2042;DHT22;1026;51.460;7.252;2023-04-01T04:34:31;10.80;97.60
2042;DHT22;1026;51.460;7.252;2023-04-01T04:36:57;10.80;97.60
2042;DHT22;1026;51.460;7.252;2023-04-01T04:39:25;10.60;97.50
2042;DHT22;1026;51.460;7.252;2023-04-01T04:41:51;10.70;97.50
2042;DHT22;1026;51.460;7.252;2023-04-01T04:44:17;10.70;97.60
2042;DHT22;1026;51.460;7.252;2023-04-01T04:46:42;10.70;97.60
2042;DHT22;1026;51.460;7.252;2023-04-01T04:49:08;10.70;97.60
2042;DHT22;1026;51.460;7.252;2023-04-01T04:51:34;10.70;97.60
2042;DHT22;1026;51.460;7.252;2023-04-01T04:54:02;10.60;97.50
2042;DHT22;1026;51.460;7.252;2023-04-01T04:56:27;10.70;97.60
2042;DHT22;1026;51.460;7.252;2023-04-01T04:58:53;10.70;97.60
2042;DHT22;1026;51.460;7.252;2023-04-01T05:01:19;10.70;97.60
2042;DHT22;1026;51.460;7.252;2023-04-01T05:03:45;10.70;97.60
2042;DHT22;1026;51.460;7.252;2023-04-01T05:06:13;10.70;97.50
2042;DHT22;1026;51.460;7.252;2023-04-01T05:08:40;10.70;97.50
2042;DHT22;1026;51.460;7.252;2023-04-01T05:11:09;10.70;97.50
2042;DHT22;1026;51.460;7.252;2023-04-01T05:13:36;10.70;97.60
2042;DHT22;1026;51.460;7.252;2023-04-01T05:16:08;10.70;97.60
2042;DHT22;1026;51.460;7.252;2023-04-01T05:18:34;10.70;97.60
2042;DHT22;1026;51.460;7.252;2023-04-01T05:21:00;10.70;97.50
2042;DHT22;1026;51.460;7.252;2023-04-01T05:23:25;10.70;97.60
2042;DHT22;1026;51.460;7.252;2023-04-01T05:25:51;10.70;97.60
2042;DHT22;1026;51.460;7.252;2023-04-01T05:28:19;10.70;97.60
2042;DHT22;1026;51.460;7.252;2023-04-01T05:30:45;10.70;97.60
2042;DHT22;1026;51.460;7.252;2023-04-01T05:33:12;10.70;97.60
2042;DHT22;1026;51.460;7.252;2023-04-01T05:35:39;10.70;97.70
2042;DHT22;1026;51.460;7.252;2023-04-01T05:38:05;10.70;97.70
2042;DHT22;1026;51.460;7.252;2023-04-01T05:40:31;10.70;97.70
2042;DHT22;1026;51.460;7.252;2023-04-01T05:42:58;10.70;97.70
2042;DHT22;1026;51.460;7.252;2023-04-01T05:45:24;10.70;97.60
2042;DHT22;1026;51.460;7.252;2023-04-01T05:47:50;10.70;97.60
2042;DHT22;1026;51.460;7.252;2023-04-01T05:50:16;10.60;97.60
2042;DHT22;1026;51.460;7.252;2023-04-01T05:52:42;10.70;97.60
2042;DHT22;1026;51.460;7.252;2023-04-01T05:55:08;10.70;97.70
2042;DHT22;1026;51.460;7.252;2023-04-01T05:57:33;10.70;97.60
2042;DHT22;1026;51.460;7.252;2023-04-01T05:59:59;10.60;97.60
2042;DHT22;1026;51.460;7.252;2023-04-01T06:02:25;10.70;97.60
2042;DHT22;1026;51.460;7.252;2023-04-01T06:05:02;10.60;97.50
2042;DHT22;1026;51.460;7.252;2023-04-01T06:07:29;10.70;97.70
2042;DHT22;1026;51.460;7.252;2023-04-01T06:09:54;10.60;97.70
2042;DHT22;1026;51.460;7.252;2023-04-01T06:12:29;10.60;97.60
2042;DHT22;1026;51.460;7.252;2023-04-01T06:28:59;10.60;98.10
2042;DHT22;1026;51.460;7.252;2023-04-01T06:34:38;10.60;97.70
2042;DHT22;1026;51.460;7.252;2023-04-01T06:42:36;10.60;97.70
2042;DHT22;1026;51.460;7.252;2023-04-01T06:54:03;10.60;97.70
2042;DHT22;1026;51.460;7.252;2023-04-01T06:56:30;10.60;97.60
2042;DHT22;1026;51.460;7.252;2023-04-01T06:59:02;10.60;97.70
2042;DHT22;1026;51.460;7.252;2023-04-01T07:01:49;10.60;97.60
2042;DHT22;1026;51.460;7.252;2023-04-01T07:04:27;10.60;97.70
2042;DHT22;1026;51.460;7.252;2023-04-01T07:06:57;10.60;97.70
2042;DHT22;1026;51.460;7.252;2023-04-01T07:10:10;10.60;97.70
2042;DHT22;1026;51.460;7.252;2023-04-01T07:12:45;10.60;97.70
2042;DHT22;1026;51.460;7.252;2023-04-01T07:15:33;10.60;97.70
2042;DHT22;1026;51.460;7.252;2023-04-01T07:18:22;10.60;97.70
2042;DHT22;1026;51.460;7.252;2023-04-01T07:20:50;10.60;97.70
2042;DHT22;1026;51.460;7.252;2023-04-01T07:23:23;10.60;97.70
2042;DHT22;1026;51.460;7.252;2023-04-01T07:25:56;10.60;97.70
2042;DHT22;1026;51.460;7.252;2023-04-01T07:28:23;10.60;97.70
2042;DHT22;1026;51.460;7.252;2023-04-01T07:31:10;10.60;97.80
2042;DHT22;1026;51.460;7.252;2023-04-01T07:34:14;10.60;97.70
2042;DHT22;1026;51.460;7.252;2023-04-01T07:36:54;10.50;97.70
2042;DHT22;1026;51.460;7.252;2023-04-01T07:39:30;10.60;97.70
2042;DHT22;1026;51.460;7.252;2023-04-01T07:42:09;10.60;97.80
2042;DHT22;1026;51.460;7.252;2023-04-01T07:44:59;10.60;97.80
2042;DHT22;1026;51.460;7.252;2023-04-01T07:47:50;10.60;98.00
2042;DHT22;1026;51.460;7.252;2023-04-01T07:53:01;10.60;97.70
2042;DHT22;1026;51.460;7.252;2023-04-01T07:55:39;10.60;97.80
2042;DHT22;1026;51.460;7.252;2023-04-01T08:04:05;10.70;97.80
2042;DHT22;1026;51.460;7.252;2023-04-01T08:06:57;10.50;97.80
2042;DHT22;1026;51.460;7.252;2023-04-01T08:09:37;10.60;97.80
2042;DHT22;1026;51.460;7.252;2023-04-01T08:23:16;10.60;97.70
2042;DHT22;1026;51.460;7.252;2023-04-01T08:25:51;10.70;97.80
2042;DHT22;1026;51.460;7.252;2023-04-01T08:30:55;10.70;97.80
2042;DHT22;1026;51.460;7.252;2023-04-01T08:33:27;10.70;97.80
2042;DHT22;1026;51.460;7.252;2023-04-01T08:36:02;10.70;97.80
2042;DHT22;1026;51.460;7.252;2023-04-01T08:38:54;10.70;97.80
2042;DHT22;1026;51.460;7.252;2023-04-01T08:47:06;10.70;97.80
2042;DHT22;1026;51.460;7.252;2023-04-01T08:58:53;10.70;97.90
2042;DHT22;1026;51.460;7.252;2023-04-01T09:01:50;10.70;97.80
2042;DHT22;1026;51.460;7.252;2023-04-01T09:04:24;10.70;97.80
2042;DHT22;1026;51.460;7.252;2023-04-01T09:07:07;10.70;98.00
2042;DHT22;1026;51.460;7.252;2023-04-01T09:12:25;10.70;97.90
2042;DHT22;1026;51.460;7.252;2023-04-01T09:20:45;10.70;97.80
2042;DHT22;1026;51.460;7.252;2023-04-01T09:28:52;10.80;97.90
2042;DHT22;1026;51.460;7.252;2023-04-01T09:34:37;10.80;97.80
2042;DHT22;1026;51.460;7.252;2023-04-01T09:37:18;10.70;97.70
2042;DHT22;1026;51.460;7.252;2023-04-01T09:40:03;10.70;98.00
2042;DHT22;1026;51.460;7.252;2023-04-01T09:51:37;10.80;97.70
2042;DHT22;1026;51.460;7.252;2023-04-01T09:54:19;10.90;97.80
2042;DHT22;1026;51.460;7.252;2023-04-01T09:57:13;10.90;97.50
2042;DHT22;1026;51.460;7.252;2023-04-01T10:11:29;10.90;97.60
2042;DHT22;1026;51.460;7.252;2023-04-01T11:14:02;10.90;98.20
2042;DHT22;1026;51.460;7.252;2023-04-01T11:22:16;10.90;98.10
2042;DHT22;1026;51.460;7.252;2023-04-01T11:33:05;11.00;98.20
2042;DHT22;1026;51.460;7.252;2023-04-01T11:35:58;11.00;98.00
2042;DHT22;1026;51.460;7.252;2023-04-01T11:43:58;11.00;98.10
2042;DHT22;1026;51.460;7.252;2023-04-01T11:46:38;11.00;98.10
2042;DHT22;1026;51.460;7.252;2023-04-01T11:49:29;11.00;98.10
2042;DHT22;1026;51.460;7.252;2023-04-01T12:11:21;11.00;98.30
2042;DHT22;1026;51.460;7.252;2023-04-01T12:14:11;11.00;98.20
2042;DHT22;1026;51.460;7.252;2023-04-01T12:22:28;11.10;98.10
2042;DHT22;1026;51.460;7.252;2023-04-01T12:25:07;11.10;98.10
2042;DHT22;1026;51.460;7.252;2023-04-01T12:33:25;11.10;98.10
2042;DHT22;1026;51.460;7.252;2023-04-01T12:36:02;11.10;98.20
2042;DHT22;1026;51.460;7.252;2023-04-01T12:39:17;11.10;98.30
2042;DHT22;1026;51.460;7.252;2023-04-01T12:41:41;11.10;98.40
2042;DHT22;1026;51.460;7.252;2023-04-01T12:44:33;11.10;98.30
2042;DHT22;1026;51.460;7.252;2023-04-01T12:47:12;11.10;98.30
2042;DHT22;1026;51.460;7.252;2023-04-01T12:55:39;11.10;98.70
2042;DHT22;1026;51.460;7.252;2023-04-01T13:01:19;11.20;98.10
2042;DHT22;1026;51.460;7.252;2023-04-01T13:11:52;11.20;98.00
2042;DHT22;1026;51.460;7.252;2023-04-01T13:14:24;11.20;98.30
2042;DHT22;1026;51.460;7.252;2023-04-01T13:19:36;11.20;97.90
2042;DHT22;1026;51.460;7.252;2023-04-01T13:22:17;11.30;98.10
2042;DHT22;1026;51.460;7.252;2023-04-01T13:29:58;11.30;98.50
2042;DHT22;1026;51.460;7.252;2023-04-01T13:32:40;11.20;98.10
2042;DHT22;1026;51.460;7.252;2023-04-01T13:35:18;11.30;98.30
2042;DHT22;1026;51.460;7.252;2023-04-01T13:38:00;11.30;98.20
2042;DHT22;1026;51.460;7.252;2023-04-01T13:40:51;11.30;98.30
2042;DHT22;1026;51.460;7.252;2023-04-01T13:46:08;11.30;98.30
2042;DHT22;1026;51.460;7.252;2023-04-01T14:03:03;11.30;98.20
2042;DHT22;1026;51.460;7.252;2023-04-01T14:06:02;11.30;98.20
2042;DHT22;1026;51.460;7.252;2023-04-01T14:14:36;11.30;98.30
2042;DHT22;1026;51.460;7.252;2023-04-01T14:31:34;11.30;98.10
2042;DHT22;1026;51.460;7.252;2023-04-01T14:34:11;11.30;98.20
2042;DHT22;1026;51.460;7.252;2023-04-01T14:36:50;11.30;98.30
2042;DHT22;1026;51.460;7.252;2023-04-01T14:42:13;11.30;98.40
2042;DHT22;1026;51.460;7.252;2023-04-01T14:44:49;11.30;98.40
2042;DHT22;1026;51.460;7.252;2023-04-01T14:47:51;11.30;98.20
2042;DHT22;1026;51.460;7.252;2023-04-01T14:50:22;11.30;98.20
2042;DHT22;1026;51.460;7.252;2023-04-01T14:52:59;11.30;98.20
2042;DHT22;1026;51.460;7.252;2023-04-01T14:55:49;11.30;98.50
2042;DHT22;1026;51.460;7.252;2023-04-01T14:58:17;11.30;98.50
2042;DHT22;1026;51.460;7.252;2023-04-01T15:03:34;11.30;98.20
2042;DHT22;1026;51.460;7.252;2023-04-01T15:06:31;11.30;98.50
2042;DHT22;1026;51.460;7.252;2023-04-01T15:09:05;11.30;98.50
2042;DHT22;1026;51.460;7.252;2023-04-01T15:17:34;11.30;98.30
2042;DHT22;1026;51.460;7.252;2023-04-01T15:20:25;11.30;98.40
2042;DHT22;1026;51.460;7.252;2023-04-01T15:31:18;11.30;98.20
2042;DHT22;1026;51.460;7.252;2023-04-01T15:34:15;11.30;98.50
2042;DHT22;1026;51.460;7.252;2023-04-01T15:36:51;11.30;98.30
2042;DHT22;1026;51.460;7.252;2023-04-01T15:39:30;11.30;98.30
2042;DHT22;1026;51.460;7.252;2023-04-01T15:47:45;11.30;98.40
2042;DHT22;1026;51.460;7.252;2023-04-01T15:53:09;11.30;98.10
2042;DHT22;1026;51.460;7.252;2023-04-01T15:58:41;11.30;98.10
2042;DHT22;1026;51.460;7.252;2023-04-01T16:01:20;11.30;98.20
2042;DHT22;1026;51.460;7.252;2023-04-01T16:03:59;11.30;98.20
2042;DHT22;1026;51.460;7.252;2023-04-01T16:06:54;11.30;98.10
2042;DHT22;1026;51.460;7.252;2023-04-01T16:20:35;11.30;98.20
2042;DHT22;1026;51.460;7.252;2023-04-01T16:28:54;11.30;98.50
2042;DHT22;1026;51.460;7.252;2023-04-01T16:31:32;11.30;98.30
2042;DHT22;1026;51.460;7.252;2023-04-01T16:36:40;11.30;98.40
2042;DHT22;1026;51.460;7.252;2023-04-01T16:42:20;11.30;98.20
2042;DHT22;1026;51.460;7.252;2023-04-01T16:47:22;11.30;98.10
2042;DHT22;1026;51.460;7.252;2023-04-01T16:49:54;11.30;98.20
2042;DHT22;1026;51.460;7.252;2023-04-01T16:52:48;11.30;98.10
2042;DHT22;1026;51.460;7.252;2023-04-01T16:55:18;11.30;98.10
2042;DHT22;1026;51.460;7.252;2023-04-01T16:57:57;11.30;98.10
2042;DHT22;1026;51.460;7.252;2023-04-01T17:00:39;11.30;98.30
2042;DHT22;1026;51.460;7.252;2023-04-01T17:11:00;11.30;98.10
2042;DHT22;1026;51.460;7.252;2023-04-01T17:16:43;11.30;98.10
2042;DHT22;1026;51.460;7.252;2023-04-01T17:19:26;11.30;98.20
2042;DHT22;1026;51.460;7.252;2023-04-01T17:24:51;11.30;98.30
2042;DHT22;1026;51.460;7.252;2023-04-01T17:27:40;11.30;98.20
2042;DHT22;1026;51.460;7.252;2023-04-01T17:33:23;11.30;98.30
2042;DHT22;1026;51.460;7.252;2023-04-01T17:35:57;11.30;98.10
2042;DHT22;1026;51.460;7.252;2023-04-01T17:46:48;11.30;98.10
2042;DHT22;1026;51.460;7.252;2023-04-01T17:49:20;11.30;98.10
2042;DHT22;1026;51.460;7.252;2023-04-01T17:51:59;11.30;98.10
2042;DHT22;1026;51.460;7.252;2023-04-01T17:57:41;11.20;98.00
2042;DHT22;1026;51.460;7.252;2023-04-01T18:00:33;11.30;98.10
2042;DHT22;1026;51.460;7.252;2023-04-01T18:06:06;11.10;98.20
2042;DHT22;1026;51.460;7.252;2023-04-01T18:08:58;11.30;98.20
2042;DHT22;1026;51.460;7.252;2023-04-01T18:11:48;11.30;98.30
2042;DHT22;1026;51.460;7.252;2023-04-01T18:14:37;11.30;98.10
2042;DHT22;1026;51.460;7.252;2023-04-01T18:17:24;11.30;98.10
2042;DHT22;1026;51.460;7.252;2023-04-01T18:20:05;11.20;98.00
2042;DHT22;1026;51.460;7.252;2023-04-01T18:22:48;11.30;98.10
2042;DHT22;1026;51.460;7.252;2023-04-01T18:25:28;11.30;98.10
2042;DHT22;1026;51.460;7.252;2023-04-01T18:30:39;11.30;98.10
2042;DHT22;1026;51.460;7.252;2023-04-01T18:33:18;11.20;98.00
2042;DHT22;1026;51.460;7.252;2023-04-01T18:38:13;11.20;98.10
2042;DHT22;1026;51.460;7.252;2023-04-01T18:40:50;11.20;98.10
2042;DHT22;1026;51.460;7.252;2023-04-01T18:43:32;11.20;98.10
2042;DHT22;1026;51.460;7.252;2023-04-01T18:46:13;11.20;98.20
2042;DHT22;1026;51.460;7.252;2023-04-01T18:51:59;11.20;98.00
2042;DHT22;1026;51.460;7.252;2023-04-01T18:54:33;11.20;98.10
2042;DHT22;1026;51.460;7.252;2023-04-01T18:57:14;11.20;98.10
2042;DHT22;1026;51.460;7.252;2023-04-01T18:59:47;11.20;98.10
2042;DHT22;1026;51.460;7.252;2023-04-01T19:02:27;11.20;98.00
2042;DHT22;1026;51.460;7.252;2023-04-01T19:05:12;11.20;98.10
2042;DHT22;1026;51.460;7.252;2023-04-01T19:07:44;11.20;98.10
2042;DHT22;1026;51.460;7.252;2023-04-01T19:15:48;11.20;98.10
2042;DHT22;1026;51.460;7.252;2023-04-01T19:18:31;11.20;98.10
2042;DHT22;1026;51.460;7.252;2023-04-01T19:24:34;11.20;98.20
2042;DHT22;1026;51.460;7.252;2023-04-01T19:26:16;11.20;98.10
2042;DHT22;1026;51.460;7.252;2023-04-01T19:28:55;11.20;98.20
2042;DHT22;1026;51.460;7.252;2023-04-01T19:40:04;11.10;98.10
2042;DHT22;1026;51.460;7.252;2023-04-01T19:42:54;11.20;98.20
2042;DHT22;1026;51.460;7.252;2023-04-01T19:48:33;11.10;98.30
2042;DHT22;1026;51.460;7.252;2023-04-01T19:59:26;11.10;98.30
2042;DHT22;1026;51.460;7.252;2023-04-01T20:02:20;11.10;98.30
2042;DHT22;1026;51.460;7.252;2023-04-01T20:04:53;11.10;98.30
2042;DHT22;1026;51.460;7.252;2023-04-01T20:07:31;11.10;98.40
2042;DHT22;1026;51.460;7.252;2023-04-01T20:15:37;11.00;98.40
2042;DHT22;1026;51.460;7.252;2023-04-01T20:20:40;11.10;98.40
2042;DHT22;1026;51.460;7.252;2023-04-01T20:23:35;11.10;98.40
2042;DHT22;1026;51.460;7.252;2023-04-01T20:26:10;11.10;98.50
2042;DHT22;1026;51.460;7.252;2023-04-01T20:31:33;11.10;98.50
2042;DHT22;1026;51.460;7.252;2023-04-01T20:37:00;11.10;98.50
2042;DHT22;1026;51.460;7.252;2023-04-01T20:39:48;11.00;98.40
2042;DHT22;1026;51.460;7.252;2023-04-01T20:47:57;11.00;98.50
2042;DHT22;1026;51.460;7.252;2023-04-01T20:50:42;11.00;98.50
2042;DHT22;1026;51.460;7.252;2023-04-01T21:01:39;10.90;98.40
2042;DHT22;1026;51.460;7.252;2023-04-01T21:06:48;11.00;98.50
2042;DHT22;1026;51.460;7.252;2023-04-01T21:09:25;11.00;98.50
2042;DHT22;1026;51.460;7.252;2023-04-01T21:20:18;11.00;98.60
2042;DHT22;1026;51.460;7.252;2023-04-01T21:25:55;10.90;98.50
2042;DHT22;1026;51.460;7.252;2023-04-01T21:34:04;11.00;98.50
2042;DHT22;1026;51.460;7.252;2023-04-01T21:36:53;10.80;98.40
2042;DHT22;1026;51.460;7.252;2023-04-01T21:48:16;10.80;98.40
2042;DHT22;1026;51.460;7.252;2023-04-01T21:51:10;10.90;98.50
2042;DHT22;1026;51.460;7.252;2023-04-01T21:56:43;10.90;98.40
2042;DHT22;1026;51.460;7.252;2023-04-01T22:11:18;10.80;98.40
2042;DHT22;1026;51.460;7.252;2023-04-01T22:13:49;10.80;98.50
2042;DHT22;1026;51.460;7.252;2023-04-01T22:16:37;10.80;98.50
2042;DHT22;1026;51.460;7.252;2023-04-01T22:19:12;10.80;98.50
2042;DHT22;1026;51.460;7.252;2023-04-01T22:21:47;10.80;98.50
2042;DHT22;1026;51.460;7.252;2023-04-01T22:24:48;10.70;98.40
2042;DHT22;1026;51.460;7.252;2023-04-01T22:27:26;10.70;98.40
2042;DHT22;1026;51.460;7.252;2023-04-01T22:32:57;10.60;98.40
2042;DHT22;1026;51.460;7.252;2023-04-01T22:38:43;10.70;98.50
2042;DHT22;1026;51.460;7.252;2023-04-01T22:44:20;10.70;98.50
2042;DHT22;1026;51.460;7.252;2023-04-01T22:50:01;10.60;98.40
2042;DHT22;1026;51.460;7.252;2023-04-01T22:52:43;10.60;98.40
2042;DHT22;1026;51.460;7.252;2023-04-01T22:55:35;10.60;98.40
2042;DHT22;1026;51.460;7.252;2023-04-01T22:58:09;10.60;98.40
2042;DHT22;1026;51.460;7.252;2023-04-01T23:01:15;10.60;98.40
2042;DHT22;1026;51.460;7.252;2023-04-01T23:03:48;10.60;98.40
2042;DHT22;1026;51.460;7.252;2023-04-01T23:06:20;10.60;98.40
2042;DHT22;1026;51.460;7.252;2023-04-01T23:12:02;10.40;98.30
2042;DHT22;1026;51.460;7.252;2023-04-01T23:14:59;10.60;98.30
2042;DHT22;1026;51.460;7.252;2023-04-01T23:17:47;10.50;98.30
2042;DHT22;1026;51.460;7.252;2023-04-01T23:20:32;10.50;98.30
2042;DHT22;1026;51.460;7.252;2023-04-01T23:23:23;10.40;98.20
2042;DHT22;1026;51.460;7.252;2023-04-01T23:28:50;10.50;98.30
2042;DHT22;1026;51.460;7.252;2023-04-01T23:31:33;10.50;98.30
2042;DHT22;1026;51.460;7.252;2023-04-01T23:36:45;10.40;98.50
2042;DHT22;1026;51.460;7.252;2023-04-01T23:42:03;10.40;98.20
2042;DHT22;1026;51.460;7.252;2023-04-01T23:44:31;10.50;98.20
2042;DHT22;1026;51.460;7.252;2023-04-01T23:46:59;10.50;98.30
2042;DHT22;1026;51.460;7.252;2023-04-01T23:49:34;10.40;98.20
2042;DHT22;1026;51.460;7.252;2023-04-01T23:52:20;10.40;98.30
2042;DHT22;1026;51.460;7.252;2023-04-01T23:55:08;10.40;98.20
2042;DHT22;1026;51.460;7.252;2023-04-01T23:57:38;10.40;98.20
